Time;durP1;ratioP1;P1;durP2;ratioP2;P2;SDS_P1;SDS_P2;PMS_P1;PMS_P2;Temp;Humidity;BMP_temperature;BMP_pressure;BME280_temperature;BME280_humidity;BME280_pressure;Samples;Min_cycle;Max_cycle;Signal;HPM_P1;HPM_P2
2021/04/28 00:00:46;;;;;;;6.10;2.03;;;10.60;53.30;;;;;;5028190;28;20050;-62
2021/04/28 00:03:12;;;;;;;6.80;1.90;;;10.50;53.10;;;;;;5030886;28;20041;-62
2021/04/28 00:05:39;;;;;;;4.85;2.08;;;10.40;53.30;;;;;;5024666;28;20037;-62
2021/04/28 00:08:06;;;;;;;4.97;1.95;;;10.50;53.10;;;;;;5029078;28;20042;-62
2021/04/28 00:10:37;;;;;;;4.70;1.92;;;10.40;52.80;;;;;;5027893;28;20064;-63
2021/04/28 00:13:05;;;;;;;4.70;1.98;;;10.40;52.60;;;;;;5028654;28;20095;-63
2021/04/28 00:15:34;;;;;;;4.82;2.30;;;10.40;52.50;;;;;;5033577;28;20072;-63
2021/04/28 00:18:01;;;;;;;3.65;1.83;;;10.30;52.60;;;;;;5034713;28;20045;-62
2021/04/28 00:20:28;;;;;;;4.07;2.15;;;10.40;52.70;;;;;;5029641;28;20048;-62
2021/04/28 00:22:55;;;;;;;3.83;1.90;;;10.30;52.50;;;;;;5028793;28;20555;-62
2021/04/28 00:25:35;;;;;;;4.93;2.67;;;10.30;52.60;;;;;;5028143;28;20041;-62
2021/04/28 00:28:02;;;;;;;6.85;2.33;;;10.40;52.30;;;;;;5027165;28;20041;-63
2021/04/28 00:30:29;;;;;;;3.63;1.90;;;10.30;52.80;;;;;;5028616;28;20393;-63
2021/04/28 00:32:55;;;;;;;5.78;2.10;;;10.30;53.10;;;;;;5028343;28;20042;-63
2021/04/28 00:35:23;;;;;;;3.80;1.70;;;10.30;53.00;;;;;;5023744;28;20050;-63
2021/04/28 00:37:52;;;;;;;5.50;3.03;;;10.10;53.50;;;;;;5025260;28;20034;-63
2021/04/28 00:40:23;;;;;;;3.95;2.15;;;10.20;53.20;;;;;;5026673;28;20052;-62
2021/04/28 00:42:50;;;;;;;7.05;2.63;;;10.10;53.50;;;;;;5007546;28;20072;-62
2021/04/28 00:45:19;;;;;;;5.00;2.50;;;10.10;53.60;;;;;;5025869;28;20107;-63
2021/04/28 00:47:46;;;;;;;5.93;1.90;;;10.20;53.60;;;;;;5034460;28;20048;-63
2021/04/28 00:50:21;;;;;;;4.53;2.28;;;10.10;53.10;;;;;;5030144;28;20060;-63
2021/04/28 00:52:48;;;;;;;5.03;2.13;;;10.20;53.20;;;;;;5034836;28;20121;-63
2021/04/28 00:55:16;;;;;;;5.78;2.42;;;10.10;52.90;;;;;;5035178;28;20041;-62
2021/04/28 00:57:43;;;;;;;6.72;2.28;;;10.00;53.10;;;;;;5030921;28;20060;-62
2021/04/28 01:00:14;;;;;;;5.55;2.35;;;10.00;53.00;;;;;;5038508;28;20046;-62
2021/04/28 01:02:41;;;;;;;6.15;2.03;;;9.80;53.70;;;;;;5031087;28;20037;-62
2021/04/28 01:05:13;;;;;;;6.22;2.25;;;9.80;53.80;;;;;;5031619;28;20045;-63
2021/04/28 01:07:58;;;;;;;3.58;2.00;;;9.70;53.60;;;;;;5032429;28;20032;-63
2021/04/28 01:10:31;;;;;;;5.75;2.38;;;9.60;53.80;;;;;;5025349;28;20570;-63
2021/04/28 01:13:02;;;;;;;4.78;1.95;;;9.60;54.10;;;;;;5032297;28;20203;-63
2021/04/28 01:15:32;;;;;;;4.03;2.28;;;9.60;53.70;;;;;;5032209;28;20056;-63
2021/04/28 01:18:07;;;;;;;4.97;2.10;;;9.60;53.80;;;;;;5031718;28;20428;-63
2021/04/28 01:20:37;;;;;;;5.60;2.90;;;9.70;53.90;;;;;;5032013;28;20055;-63
2021/04/28 01:23:07;;;;;;;4.47;2.35;;;9.70;53.80;;;;;;5044163;28;20056;-63
2021/04/28 01:25:36;;;;;;;3.45;1.85;;;9.70;54.10;;;;;;5007057;28;20755;-62
2021/04/28 01:28:15;;;;;;;5.65;2.00;;;9.60;53.80;;;;;;5029279;28;20041;-62
2021/04/28 01:31:02;;;;;;;3.85;1.85;;;9.60;53.80;;;;;;5028944;28;20045;-63
2021/04/28 01:33:41;;;;;;;6.15;2.60;;;9.60;54.00;;;;;;5032440;28;20058;-63
2021/04/28 01:36:20;;;;;;;6.22;2.17;;;9.40;54.60;;;;;;5032603;28;20041;-64
2021/04/28 01:38:54;;;;;;;8.65;2.70;;;9.40;54.20;;;;;;5030910;28;20048;-62
2021/04/28 01:41:27;;;;;;;6.30;2.40;;;9.40;54.30;;;;;;5030660;28;20053;-63
2021/04/28 01:43:57;;;;;;;4.53;2.42;;;9.40;54.70;;;;;;5031238;28;20042;-63
2021/04/28 01:46:27;;;;;;;5.15;2.15;;;9.40;53.90;;;;;;5032032;28;20056;-63
2021/04/28 01:48:56;;;;;;;4.03;2.05;;;9.40;53.80;;;;;;5031041;28;20029;-63
2021/04/28 01:51:25;;;;;;;5.95;1.90;;;9.40;53.60;;;;;;5030473;28;20570;-63
2021/04/28 01:53:52;;;;;;;4.78;1.95;;;9.20;53.40;;;;;;5026621;28;20432;-63
2021/04/28 01:56:22;;;;;;;3.90;1.90;;;9.30;53.40;;;;;;5029484;28;20088;-63
2021/04/28 01:59:08;;;;;;;5.63;2.03;;;9.30;53.00;;;;;;5032331;28;20381;-63
2021/04/28 02:01:58;;;;;;;5.85;2.10;;;9.30;52.30;;;;;;5016657;28;20044;-62
2021/04/28 02:04:31;;;;;;;6.25;2.40;;;9.10;52.40;;;;;;5029408;28;20057;-62
2021/04/28 02:06:59;;;;;;;7.00;2.25;;;9.20;52.90;;;;;;5031722;28;20057;-62
2021/04/28 02:09:28;;;;;;;5.30;2.30;;;9.10;52.40;;;;;;5030964;28;20623;-63
2021/04/28 02:11:57;;;;;;;5.32;1.98;;;9.10;52.30;;;;;;5029841;28;20075;-63
2021/04/28 02:14:31;;;;;;;3.90;1.75;;;9.30;52.20;;;;;;5021106;28;20103;-63
2021/04/28 02:17:09;;;;;;;5.00;1.60;;;9.20;52.00;;;;;;5033370;28;20045;-63
2021/04/28 02:19:39;;;;;;;8.93;2.03;;;9.00;52.00;;;;;;5031121;28;20046;-62
2021/04/28 02:22:10;;;;;;;5.63;1.90;;;9.00;52.20;;;;;;5030703;28;20122;-62
2021/04/28 02:24:55;;;;;;;6.70;1.95;;;8.90;52.10;;;;;;5029359;28;20045;-63
2021/04/28 02:27:34;;;;;;;5.03;2.38;;;8.70;52.80;;;;;;5024986;28;20057;-63
2021/04/28 02:30:06;;;;;;;3.80;1.52;;;8.90;52.80;;;;;;5021839;28;20042;-63
2021/04/28 02:32:34;;;;;;;5.07;2.10;;;8.90;52.90;;;;;;5039591;28;20064;-63
2021/04/28 02:35:22;;;;;;;5.70;1.80;;;8.90;52.30;;;;;;5029514;28;20516;-63
2021/04/28 02:38:31;;;;;;;4.18;1.70;;;8.80;52.70;;;;;;5035635;28;20045;-63
2021/04/28 02:41:10;;;;;;;4.38;1.90;;;8.80;52.80;;;;;;5034780;28;20053;-63
2021/04/28 02:43:42;;;;;;;5.93;1.80;;;8.70;52.90;;;;;;5031688;28;20463;-63
2021/04/28 02:46:16;;;;;;;6.30;1.95;;;8.70;52.90;;;;;;5030889;28;20041;-63
2021/04/28 02:48:49;;;;;;;4.60;1.77;;;8.60;53.20;;;;;;5024361;28;20042;-62
2021/04/28 02:51:38;;;;;;;4.65;1.83;;;8.60;53.40;;;;;;5028469;28;20129;-62
2021/04/28 02:54:17;;;;;;;4.63;1.80;;;8.70;53.60;;;;;;5016846;28;20070;-62
2021/04/28 02:56:44;;;;;;;5.93;2.50;;;8.60;53.50;;;;;;5024026;28;20041;-63
2021/04/28 02:59:12;;;;;;;4.85;2.10;;;8.50;53.70;;;;;;5031358;28;20044;-62
2021/04/28 03:01:40;;;;;;;6.13;1.92;;;8.50;53.90;;;;;;5030686;28;20042;-62
2021/04/28 03:04:09;;;;;;;4.82;2.50;;;8.40;53.70;;;;;;5034858;28;20484;-62
2021/04/28 03:06:59;;;;;;;5.20;1.90;;;8.50;53.90;;;;;;5010304;28;20158;-63
2021/04/28 03:09:27;;;;;;;5.00;1.75;;;8.50;53.90;;;;;;5029110;28;20049;-62
2021/04/28 03:11:54;;;;;;;3.70;1.77;;;8.60;53.70;;;;;;5029617;28;20049;-63
2021/04/28 03:14:24;;;;;;;5.88;2.13;;;8.50;53.70;;;;;;5003663;28;20049;-63
2021/04/28 03:16:51;;;;;;;3.67;1.65;;;8.40;54.20;;;;;;5029029;28;20041;-63
2021/04/28 03:19:18;;;;;;;4.75;1.58;;;8.50;53.70;;;;;;5031915;28;20048;-63
2021/04/28 03:21:48;;;;;;;5.65;2.08;;;8.50;54.00;;;;;;5037724;28;20091;-63
2021/04/28 03:24:17;;;;;;;5.57;2.45;;;8.30;53.70;;;;;;5014314;28;20042;-63
2021/04/28 03:26:44;;;;;;;6.03;2.40;;;8.10;54.00;;;;;;5024887;28;20423;-62
2021/04/28 03:29:11;;;;;;;7.20;1.88;;;8.30;54.20;;;;;;5020688;28;20045;-62
2021/04/28 03:31:41;;;;;;;3.63;1.73;;;8.30;54.50;;;;;;5028685;28;20049;-62
2021/04/28 03:34:09;;;;;;;5.30;1.85;;;8.30;54.20;;;;;;5027659;28;20049;-63
2021/04/28 03:36:36;;;;;;;5.97;1.98;;;8.50;54.20;;;;;;5028759;28;20041;-62
2021/04/28 03:39:16;;;;;;;4.50;1.83;;;8.50;54.00;;;;;;5029745;28;20091;-62
2021/04/28 03:41:43;;;;;;;5.60;2.55;;;8.30;54.20;;;;;;5030339;28;20049;-63
2021/04/28 03:44:10;;;;;;;4.90;2.40;;;8.40;54.40;;;;;;5027992;28;20045;-63
2021/04/28 03:46:36;;;;;;;4.88;2.30;;;8.40;54.70;;;;;;5034528;28;20038;-62
2021/04/28 03:49:03;;;;;;;6.25;2.58;;;8.50;54.30;;;;;;5026631;28;20137;-62
2021/04/28 03:51:30;;;;;;;4.78;2.08;;;8.30;54.10;;;;;;5026075;28;20045;-63
2021/04/28 03:54:06;;;;;;;6.22;2.25;;;8.30;54.60;;;;;;5029838;28;20053;-62
2021/04/28 03:56:33;;;;;;;5.03;2.38;;;8.30;54.40;;;;;;5023646;28;20050;-62
2021/04/28 03:59:00;;;;;;;4.07;2.22;;;8.20;54.50;;;;;;5032132;28;20120;-63
2021/04/28 04:01:27;;;;;;;5.80;2.45;;;8.20;54.40;;;;;;5005834;28;20133;-62
2021/04/28 04:03:54;;;;;;;5.43;2.40;;;8.10;54.90;;;;;;5026978;28;20037;-62
2021/04/28 04:06:40;;;;;;;4.75;2.13;;;8.20;54.90;;;;;;5029807;28;20408;-62
2021/04/28 04:09:15;;;;;;;4.78;2.17;;;8.20;54.50;;;;;;5030114;28;20041;-63
2021/04/28 04:11:44;;;;;;;7.25;2.70;;;8.20;54.40;;;;;;5022383;28;20041;-62
2021/04/28 04:14:16;;;;;;;7.80;2.77;;;8.30;54.40;;;;;;5040383;28;20052;-62
2021/04/28 04:16:46;;;;;;;7.90;2.35;;;8.30;54.50;;;;;;5033402;28;20291;-63
2021/04/28 04:19:14;;;;;;;7.32;2.80;;;8.40;54.50;;;;;;5026650;28;20048;-63
2021/04/28 04:21:58;;;;;;;6.63;2.80;;;8.30;54.60;;;;;;5030392;28;20163;-63
2021/04/28 04:24:50;;;;;;;7.55;3.10;;;8.20;54.30;;;;;;5031336;28;20041;-63
2021/04/28 04:27:17;;;;;;;4.70;2.20;;;8.30;54.50;;;;;;5025053;28;20501;-62
2021/04/28 04:29:56;;;;;;;7.18;2.40;;;8.30;54.80;;;;;;5016338;28;20114;-63
2021/04/28 04:32:29;;;;;;;9.73;2.72;;;8.40;55.40;;;;;;5033187;28;20615;-63
2021/04/28 04:35:33;;;;;;;8.60;3.00;;;8.40;55.20;;;;;;5028770;28;20081;-63
2021/04/28 04:38:23;;;;;;;6.70;2.85;;;8.60;54.50;;;;;;5030045;28;20049;-62
2021/04/28 04:41:09;;;;;;;7.25;2.75;;;8.60;54.50;;;;;;5031663;28;20049;-63
2021/04/28 04:44:00;;;;;;;5.78;2.65;;;8.60;54.60;;;;;;5022032;28;20502;-63
2021/04/28 04:46:39;;;;;;;4.40;1.83;;;8.80;55.00;;;;;;5040140;28;20057;-63
2021/04/28 04:49:05;;;;;;;7.85;2.90;;;8.80;54.20;;;;;;5038184;28;20045;-62
2021/04/28 04:51:32;;;;;;;4.57;2.13;;;8.80;54.30;;;;;;5011253;28;20127;-62
2021/04/28 04:53:59;;;;;;;4.35;2.25;;;8.90;54.90;;;;;;5011628;28;20479;-63
2021/04/28 04:56:25;;;;;;;6.22;3.30;;;8.90;53.80;;;;;;5029529;28;20049;-61
2021/04/28 04:58:52;;;;;;;6.25;2.10;;;8.90;53.70;;;;;;5029395;28;20046;-60
2021/04/28 05:01:18;;;;;;;6.82;3.00;;;9.00;54.20;;;;;;5027063;28;20572;-62
2021/04/28 05:03:45;;;;;;;5.88;2.85;;;9.00;54.00;;;;;;5030090;28;20041;-63
2021/04/28 05:06:11;;;;;;;4.35;2.10;;;9.00;53.70;;;;;;5015949;28;20057;-62
2021/04/28 05:08:38;;;;;;;4.70;2.60;;;9.00;53.90;;;;;;5032167;28;20047;-62
2021/04/28 05:11:04;;;;;;;4.28;2.20;;;9.10;53.90;;;;;;5030302;28;20049;-62
2021/04/28 05:13:31;;;;;;;7.25;2.70;;;9.10;54.20;;;;;;5044915;28;20049;-62
2021/04/28 05:15:57;;;;;;;9.13;3.47;;;9.10;53.60;;;;;;5033986;28;20380;-62
2021/04/28 05:18:24;;;;;;;6.65;2.70;;;9.30;54.30;;;;;;5032068;28;20046;-60
2021/04/28 05:20:50;;;;;;;6.38;2.75;;;9.30;54.00;;;;;;5032365;28;20122;-60
2021/04/28 05:23:17;;;;;;;5.82;3.08;;;9.40;53.50;;;;;;5023937;28;20045;-60
2021/04/28 05:26:01;;;;;;;5.65;2.92;;;9.40;53.30;;;;;;5028578;28;20041;-61
2021/04/28 05:28:27;;;;;;;5.82;2.65;;;9.50;52.40;;;;;;5009421;28;20052;-60
2021/04/28 05:30:54;;;;;;;7.00;2.85;;;9.40;53.20;;;;;;5021959;28;20049;-60
2021/04/28 05:33:20;;;;;;;6.30;2.25;;;9.50;53.40;;;;;;5031680;28;20064;-60
2021/04/28 05:35:47;;;;;;;5.38;2.53;;;9.60;52.50;;;;;;5037762;28;20869;-60
2021/04/28 05:38:13;;;;;;;5.00;2.42;;;9.50;53.20;;;;;;5030909;28;20053;-60
2021/04/28 05:40:40;;;;;;;6.85;2.38;;;9.60;53.20;;;;;;5031039;28;20121;-60
2021/04/28 05:43:06;;;;;;;6.10;3.17;;;9.50;53.30;;;;;;5033305;28;20061;-60
2021/04/28 05:45:42;;;;;;;7.07;2.47;;;9.70;53.20;;;;;;5027846;28;20491;-61
2021/04/28 05:48:13;;;;;;;6.22;2.30;;;9.70;53.60;;;;;;5044672;28;20048;-60
2021/04/28 05:50:41;;;;;;;5.50;2.17;;;9.90;53.10;;;;;;5018265;28;21864;-63
2021/04/28 05:53:08;;;;;;;4.35;2.50;;;10.00;52.80;;;;;;5021273;28;20081;-63
2021/04/28 05:55:36;;;;;;;7.43;2.83;;;10.00;53.10;;;;;;5029208;28;20061;-63
2021/04/28 05:58:03;;;;;;;6.15;2.33;;;10.10;52.70;;;;;;5030828;28;20033;-63
2021/04/28 06:00:30;;;;;;;5.90;2.90;;;10.20;53.10;;;;;;5025209;28;20038;-63
2021/04/28 06:02:57;;;;;;;4.25;2.13;;;10.30;52.40;;;;;;5028712;28;20083;-63
2021/04/28 06:05:23;;;;;;;7.00;3.38;;;10.30;51.70;;;;;;5027811;28;20053;-63
2021/04/28 06:07:50;;;;;;;5.72;2.90;;;10.40;52.50;;;;;;5029740;28;20038;-63
2021/04/28 06:10:18;;;;;;;7.30;3.00;;;10.60;52.20;;;;;;5027052;28;20053;-63
2021/04/28 06:12:46;;;;;;;5.05;2.75;;;10.70;52.00;;;;;;5029952;28;20505;-63
2021/04/28 06:15:14;;;;;;;5.45;2.42;;;10.70;51.60;;;;;;5034881;28;20037;-63
2021/04/28 06:17:42;;;;;;;4.40;2.58;;;10.80;52.10;;;;;;5005498;28;20504;-63
2021/04/28 06:20:13;;;;;;;5.40;2.90;;;10.90;51.70;;;;;;5024072;28;20046;-62
2021/04/28 06:22:40;;;;;;;5.13;2.60;;;11.00;52.00;;;;;;5029496;28;20065;-63
2021/04/28 06:25:07;;;;;;;7.00;3.00;;;11.00;51.20;;;;;;5030002;28;20037;-63
2021/04/28 06:27:34;;;;;;;7.90;2.83;;;11.20;51.60;;;;;;5028275;28;20817;-64
2021/04/28 06:30:01;;;;;;;8.05;2.95;;;11.20;50.90;;;;;;5027483;28;20037;-63
2021/04/28 06:32:27;;;;;;;5.78;3.22;;;11.30;52.10;;;;;;5030406;28;20050;-63
2021/04/28 06:34:54;;;;;;;5.85;2.63;;;11.40;52.00;;;;;;5032956;28;20128;-63
2021/04/28 06:37:20;;;;;;;6.82;2.80;;;11.50;51.10;;;;;;5029660;28;20050;-63
2021/04/28 06:39:47;;;;;;;6.15;2.85;;;11.50;51.00;;;;;;5029705;28;20053;-62
2021/04/28 06:42:14;;;;;;;5.35;2.22;;;11.50;51.30;;;;;;5017203;28;20050;-63
2021/04/28 06:44:41;;;;;;;5.18;3.00;;;11.60;50.40;;;;;;5031728;28;20731;-63
2021/04/28 06:47:08;;;;;;;8.68;3.72;;;11.60;50.30;;;;;;5029283;28;20067;-63
2021/04/28 06:49:34;;;;;;;5.43;2.83;;;11.50;50.30;;;;;;5025266;28;20053;-62
2021/04/28 06:52:01;;;;;;;5.45;3.08;;;11.50;51.20;;;;;;5030307;28;20489;-63
2021/04/28 06:54:29;;;;;;;7.85;2.75;;;11.60;51.20;;;;;;5035021;28;20059;-63
2021/04/28 06:56:56;;;;;;;3.95;2.40;;;11.70;51.20;;;;;;5031294;28;20089;-63
2021/04/28 06:59:22;;;;;;;6.50;2.50;;;11.80;49.90;;;;;;5030045;28;20110;-63
2021/04/28 07:01:51;;;;;;;5.90;2.70;;;11.90;50.10;;;;;;5030576;28;20049;-61
2021/04/28 07:04:22;;;;;;;4.80;2.00;;;11.90;50.30;;;;;;5030390;28;20463;-62
2021/04/28 07:06:49;;;;;;;4.25;2.15;;;12.00;50.30;;;;;;5035811;28;20049;-62
2021/04/28 07:09:16;;;;;;;7.43;2.78;;;12.10;49.90;;;;;;5037898;28;20151;-62
2021/04/28 07:11:43;;;;;;;5.60;2.40;;;12.10;50.40;;;;;;5029499;28;20057;-62
2021/04/28 07:14:10;;;;;;;4.35;2.28;;;12.20;50.00;;;;;;5027047;28;20053;-62
2021/04/28 07:16:37;;;;;;;5.35;2.50;;;12.20;50.10;;;;;;5027641;28;20049;-62
2021/04/28 07:19:04;;;;;;;5.32;2.63;;;12.30;50.40;;;;;;5033746;28;20921;-62
2021/04/28 07:21:31;;;;;;;5.13;2.60;;;12.30;50.00;;;;;;5030186;28;20053;-62
2021/04/28 07:24:00;;;;;;;5.35;2.40;;;12.30;50.50;;;;;;5028119;28;20030;-61
2021/04/28 07:26:28;;;;;;;4.25;2.38;;;12.40;50.50;;;;;;5027751;28;20049;-61
2021/04/28 07:28:54;;;;;;;5.82;2.50;;;12.50;50.30;;;;;;5034060;28;20067;-62
2021/04/28 07:31:21;;;;;;;5.65;2.47;;;12.50;49.60;;;;;;5031435;28;20049;-62
2021/04/28 07:33:48;;;;;;;6.13;2.40;;;12.60;49.70;;;;;;5027674;28;20048;-62
2021/04/28 07:36:15;;;;;;;4.70;1.83;;;12.70;48.60;;;;;;5028964;28;20104;-62
2021/04/28 07:38:42;;;;;;;4.72;2.08;;;12.80;48.70;;;;;;5033828;28;20053;-62
2021/04/28 07:41:10;;;;;;;5.20;2.20;;;12.80;48.40;;;;;;5031803;28;20049;-61
2021/04/28 07:43:37;;;;;;;5.43;2.20;;;12.80;48.50;;;;;;5030904;28;20067;-62
2021/04/28 07:46:04;;;;;;;5.97;2.55;;;12.90;48.70;;;;;;5029710;28;20044;-62
2021/04/28 07:48:31;;;;;;;9.68;2.20;;;12.90;47.70;;;;;;5026965;28;20053;-62
2021/04/28 07:51:00;;;;;;;5.00;2.30;;;12.80;48.10;;;;;;5029744;28;20876;-62
2021/04/28 07:53:28;;;;;;;10.32;2.63;;;12.90;48.00;;;;;;5029659;28;20038;-62
2021/04/28 07:55:55;;;;;;;4.03;2.17;;;13.00;47.80;;;;;;5014203;28;21872;-62
2021/04/28 07:58:22;;;;;;;4.30;2.13;;;13.00;48.20;;;;;;5020653;28;20041;-63
2021/04/28 08:00:48;;;;;;;8.88;2.58;;;13.00;47.40;;;;;;5023768;28;20041;-61
2021/04/28 08:03:15;;;;;;;4.70;2.30;;;13.00;54.40;;;;;;5023027;28;20041;-62
2021/04/28 08:05:41;;;;;;;5.15;2.55;;;13.00;48.60;;;;;;5023708;28;20508;-61
2021/04/28 08:08:08;;;;;;;4.30;2.17;;;13.10;47.60;;;;;;5033325;28;20049;-61
2021/04/28 08:10:34;;;;;;;5.95;2.55;;;13.20;48.40;;;;;;5028049;28;20095;-61
2021/04/28 08:13:01;;;;;;;5.28;2.30;;;13.30;48.40;;;;;;5005897;28;20049;-62
2021/04/28 08:15:29;;;;;;;4.13;2.17;;;13.30;47.70;;;;;;5026505;28;20057;-61
2021/04/28 08:17:57;;;;;;;5.68;2.63;;;13.40;46.80;;;;;;5021195;28;20044;-62
2021/04/28 08:20:24;;;;;;;4.38;2.38;;;13.40;47.30;;;;;;5022531;28;20049;-62
2021/04/28 08:22:50;;;;;;;5.05;2.40;;;13.30;47.60;;;;;;5029639;28;20124;-61
2021/04/28 08:25:17;;;;;;;4.32;2.47;;;13.40;47.40;;;;;;5025322;28;20048;-62
2021/04/28 08:27:44;;;;;;;6.28;2.17;;;13.40;47.60;;;;;;5016883;28;20057;-61
2021/04/28 08:30:12;;;;;;;3.83;2.05;;;13.40;46.80;;;;;;5035110;28;20068;-61
2021/04/28 08:32:39;;;;;;;4.15;2.00;;;13.40;45.50;;;;;;5031356;28;20045;-61
2021/04/28 08:35:08;;;;;;;4.18;2.17;;;13.40;45.60;;;;;;5003810;28;20045;-61
2021/04/28 08:37:36;;;;;;;4.18;2.05;;;13.40;46.10;;;;;;5021489;28;20076;-61
2021/04/28 08:40:03;;;;;;;6.03;2.55;;;13.50;46.70;;;;;;5023999;28;20046;-61
2021/04/28 08:42:32;;;;;;;4.90;3.10;;;13.50;46.00;;;;;;5035533;28;20071;-61
2021/04/28 08:44:59;;;;;;;4.43;2.45;;;13.60;46.50;;;;;;5022871;28;20053;-61
2021/04/28 08:47:25;;;;;;;6.13;2.63;;;13.70;45.30;;;;;;5025122;28;20568;-61
2021/04/28 08:49:53;;;;;;;4.53;2.20;;;13.70;45.80;;;;;;5023041;28;20053;-62
2021/04/28 08:52:20;;;;;;;6.75;2.72;;;13.70;46.20;;;;;;5023196;28;20152;-60
2021/04/28 08:54:48;;;;;;;3.20;1.67;;;13.70;45.30;;;;;;5021631;28;20045;-60
2021/04/28 08:57:16;;;;;;;5.28;2.35;;;13.80;44.50;;;;;;5018913;28;20053;-60
2021/04/28 08:59:42;;;;;;;3.88;1.85;;;13.80;44.10;;;;;;5015345;28;20041;-61
2021/04/28 09:02:28;;;;;;;3.35;1.63;;;13.80;43.70;;;;;;5021651;28;20037;-61
2021/04/28 09:05:07;;;;;;;4.53;1.92;;;13.90;43.70;;;;;;5006702;28;20140;-62
2021/04/28 09:07:34;;;;;;;4.43;2.05;;;14.00;44.10;;;;;;5020160;28;20400;-61
2021/04/28 09:10:03;;;;;;;5.80;1.88;;;14.00;45.20;;;;;;5027530;28;20099;-61
2021/04/28 09:12:29;;;;;;;8.38;2.40;;;14.10;45.00;;;;;;5026068;28;20605;-61
2021/04/28 09:14:56;;;;;;;3.90;1.85;;;14.20;43.70;;;;;;5021107;28;20046;-62
2021/04/28 09:17:23;;;;;;;6.95;2.00;;;14.20;43.40;;;;;;5026184;28;20033;-61
2021/04/28 09:20:17;;;;;;;4.75;2.00;;;14.30;43.40;;;;;;5031034;28;20506;-61
2021/04/28 09:23:11;;;;;;;7.13;2.13;;;14.40;43.20;;;;;;5028501;28;20151;-61
2021/04/28 09:26:04;;;;;;;3.38;1.63;;;14.50;42.70;;;;;;5035513;28;20073;-61
2021/04/28 09:28:53;;;;;;;6.30;1.98;;;14.50;42.90;;;;;;5022420;28;20054;-61
2021/04/28 09:31:20;;;;;;;9.18;2.38;;;14.70;42.00;;;;;;5029481;28;20044;-61
2021/04/28 09:33:51;;;;;;;3.40;1.63;;;14.80;42.10;;;;;;4995370;28;20037;-61
2021/04/28 09:36:37;;;;;;;4.43;1.98;;;14.90;42.70;;;;;;5030143;28;20103;-61
2021/04/28 09:39:09;;;;;;;5.63;1.50;;;15.00;40.20;;;;;;5025782;28;20045;-61
2021/04/28 09:41:37;;;;;;;3.78;1.60;;;15.10;41.00;;;;;;5024002;28;20052;-62
2021/04/28 09:44:19;;;;;;;3.10;1.83;;;15.10;41.40;;;;;;5026559;28;20828;-62
2021/04/28 09:46:59;;;;;;;3.83;1.83;;;15.20;40.40;;;;;;5031262;28;20120;-62
2021/04/28 09:49:52;;;;;;;3.53;1.40;;;15.40;42.90;;;;;;5022051;28;20442;-62
2021/04/28 09:52:41;;;;;;;6.95;2.65;;;15.60;42.10;;;;;;5025995;28;20053;-63
2021/04/28 09:55:11;;;;;;;4.25;1.70;;;15.80;39.20;;;;;;5028469;28;20056;-62
2021/04/28 09:57:49;;;;;;;4.65;1.75;;;15.80;39.70;;;;;;5025715;28;20040;-62
2021/04/28 10:00:19;;;;;;;4.45;1.55;;;15.80;40.30;;;;;;5028670;28;20051;-62
2021/04/28 10:03:00;;;;;;;3.58;1.60;;;15.80;40.70;;;;;;5027378;28;20611;-62
2021/04/28 10:05:33;;;;;;;3.08;1.55;;;15.80;40.60;;;;;;5034784;28;20506;-62
2021/04/28 10:08:13;;;;;;;4.72;1.95;;;15.90;41.10;;;;;;5028644;28;20447;-62
2021/04/28 10:10:41;;;;;;;2.80;1.60;;;15.90;40.10;;;;;;5022802;28;20073;-62
2021/04/28 10:13:12;;;;;;;3.95;0.98;;;16.00;40.10;;;;;;5020824;28;20042;-62
2021/04/28 10:15:38;;;;;;;5.22;1.80;;;16.00;38.50;;;;;;5026522;28;20045;-62
2021/04/28 10:18:07;;;;;;;4.05;1.45;;;16.00;39.60;;;;;;5029301;28;20403;-62
2021/04/28 10:20:36;;;;;;;3.25;1.45;;;16.00;40.00;;;;;;5025505;28;20050;-62
2021/04/28 10:23:08;;;;;;;4.05;1.50;;;16.10;39.80;;;;;;5008118;28;20400;-62
2021/04/28 10:25:36;;;;;;;3.30;1.77;;;16.10;41.70;;;;;;5026092;28;20076;-62
2021/04/28 10:28:09;;;;;;;7.15;1.90;;;16.20;41.10;;;;;;5025755;28;20440;-62
2021/04/28 10:30:40;;;;;;;3.78;2.00;;;16.30;40.60;;;;;;5017705;28;20049;-62
2021/04/28 10:33:12;;;;;;;4.85;2.08;;;16.40;40.10;;;;;;5027723;28;20699;-63
2021/04/28 10:35:39;;;;;;;2.60;1.70;;;16.50;38.80;;;;;;5027794;28;20056;-62
2021/04/28 10:38:06;;;;;;;4.80;1.88;;;16.50;39.20;;;;;;5021035;28;20057;-62
2021/04/28 10:40:35;;;;;;;4.43;2.08;;;16.60;39.00;;;;;;5018987;28;20041;-62
2021/04/28 10:43:10;;;;;;;7.10;1.85;;;16.70;38.40;;;;;;5030097;28;20045;-62
2021/04/28 10:45:38;;;;;;;3.67;2.00;;;16.80;40.10;;;;;;5025221;28;20050;-62
2021/04/28 10:48:39;;;;;;;4.45;1.75;;;16.80;40.30;;;;;;5039984;28;20041;-62
2021/04/28 10:51:05;;;;;;;5.30;2.05;;;16.90;39.20;;;;;;5026816;28;20075;-62
2021/04/28 10:53:32;;;;;;;4.53;1.85;;;17.10;40.00;;;;;;5027006;28;20054;-63
2021/04/28 10:56:05;;;;;;;6.53;2.30;;;17.20;39.90;;;;;;5025634;28;20057;-62
2021/04/28 10:58:34;;;;;;;3.42;1.70;;;17.30;40.40;;;;;;5024539;28;20045;-62
2021/04/28 11:01:07;;;;;;;5.00;1.77;;;17.40;39.70;;;;;;5026014;28;20046;-62
2021/04/28 11:03:38;;;;;;;4.55;1.70;;;17.50;39.20;;;;;;5024234;28;20581;-62
2021/04/28 11:06:17;;;;;;;6.10;2.20;;;17.50;38.70;;;;;;5040857;28;20593;-62
2021/04/28 11:08:44;;;;;;;5.55;2.40;;;17.50;39.40;;;;;;5022347;28;20057;-62
2021/04/28 11:11:39;;;;;;;3.63;1.80;;;17.60;39.40;;;;;;5025278;28;20103;-62
2021/04/28 11:14:08;;;;;;;5.28;1.80;;;17.80;40.30;;;;;;5027584;28;20519;-62
2021/04/28 11:16:39;;;;;;;7.82;2.00;;;17.90;40.00;;;;;;5019390;28;20045;-61
2021/04/28 11:19:15;;;;;;;8.02;2.83;;;17.90;39.00;;;;;;5017073;28;20407;-61
2021/04/28 11:21:44;;;;;;;6.43;2.45;;;18.00;38.70;;;;;;5022933;28;20099;-63
2021/04/28 11:24:15;;;;;;;4.03;2.00;;;18.00;38.90;;;;;;5029535;28;20076;-62
2021/04/28 11:26:52;;;;;;;4.72;1.92;;;18.00;40.00;;;;;;5015408;28;20041;-63
2021/04/28 11:29:20;;;;;;;7.32;2.50;;;18.10;39.40;;;;;;5025084;28;20056;-62
2021/04/28 11:31:48;;;;;;;5.78;1.75;;;18.20;38.90;;;;;;5030964;28;20475;-62
2021/04/28 11:34:24;;;;;;;8.43;2.45;;;18.10;39.10;;;;;;5028049;28;20046;-61
2021/04/28 11:36:59;;;;;;;6.03;2.33;;;18.20;38.60;;;;;;5025397;28;20045;-61
2021/04/28 11:39:43;;;;;;;4.70;1.92;;;18.20;39.60;;;;;;5039468;28;20045;-61
2021/04/28 11:42:15;;;;;;;6.10;2.10;;;18.30;38.90;;;;;;5029164;28;20045;-62
2021/04/28 11:44:50;;;;;;;6.33;2.27;;;18.60;39.10;;;;;;5021756;28;20057;-62
2021/04/28 11:47:24;;;;;;;6.05;2.08;;;18.90;38.30;;;;;;5031201;28;20444;-62
2021/04/28 11:49:52;;;;;;;5.15;1.98;;;19.10;38.70;;;;;;5029108;28;20045;-62
2021/04/28 11:52:21;;;;;;;3.42;1.40;;;19.30;38.20;;;;;;5009794;28;20107;-62
2021/04/28 11:54:53;;;;;;;4.13;1.38;;;19.30;38.10;;;;;;5025900;28;20052;-61
2021/04/28 11:57:31;;;;;;;3.03;1.52;;;19.50;38.30;;;;;;5032687;28;20169;-61
2021/04/28 12:00:08;;;;;;;3.85;1.92;;;19.80;38.50;;;;;;5021039;28;20037;-61
2021/04/28 12:02:35;;;;;;;3.83;1.95;;;20.30;37.20;;;;;;5026489;28;20060;-61
2021/04/28 12:05:03;;;;;;;4.05;1.40;;;20.60;36.80;;;;;;5021794;28;20034;-61
2021/04/28 12:07:32;;;;;;;4.35;1.85;;;20.80;37.30;;;;;;5020238;28;20571;-63
2021/04/28 12:09:58;;;;;;;5.25;2.08;;;21.00;36.60;;;;;;5025978;28;20049;-61
2021/04/28 12:12:31;;;;;;;4.47;1.70;;;21.30;37.60;;;;;;5026688;28;20050;-62
2021/04/28 12:15:04;;;;;;;3.38;1.58;;;21.50;37.30;;;;;;5022269;28;20061;-61
2021/04/28 12:17:41;;;;;;;6.90;2.00;;;21.80;36.40;;;;;;5007878;28;20045;-63
2021/04/28 12:20:22;;;;;;;8.43;2.35;;;22.00;37.10;;;;;;5025817;28;20041;-62
2021/04/28 12:22:58;;;;;;;3.47;1.60;;;22.20;36.50;;;;;;5022564;28;20500;-63
2021/04/28 12:25:24;;;;;;;5.10;1.80;;;22.60;38.00;;;;;;5025478;28;20053;-62
2021/04/28 12:27:51;;;;;;;4.00;1.88;;;22.70;37.40;;;;;;5023998;28;20076;-62
2021/04/28 12:30:21;;;;;;;4.57;1.88;;;22.70;37.60;;;;;;5026930;28;20052;-62
2021/04/28 12:32:59;;;;;;;5.75;2.03;;;22.70;38.70;;;;;;5023184;28;20791;-63
2021/04/28 12:35:29;;;;;;;4.15;2.20;;;22.80;38.10;;;;;;5021442;28;20069;-61
2021/04/28 12:37:59;;;;;;;3.58;1.80;;;22.80;36.70;;;;;;5007790;28;20510;-61
2021/04/28 12:40:39;;;;;;;3.38;1.55;;;23.00;37.30;;;;;;5018059;28;20056;-61
2021/04/28 12:43:10;;;;;;;5.22;1.90;;;23.20;36.80;;;;;;5031844;28;20045;-61
2021/04/28 12:46:05;;;;;;;6.40;2.38;;;23.20;37.00;;;;;;5029829;28;20049;-61
2021/04/28 12:48:59;;;;;;;3.83;2.13;;;22.90;37.40;;;;;;5033739;28;20057;-61
2021/04/28 12:51:26;;;;;;;5.38;1.60;;;22.90;38.10;;;;;;5032003;28;20048;-61
2021/04/28 12:53:53;;;;;;;3.83;1.67;;;23.00;37.00;;;;;;5029540;28;20567;-62
2021/04/28 12:56:20;;;;;;;3.13;2.00;;;23.10;37.90;;;;;;5030204;28;21463;-62
2021/04/28 12:58:49;;;;;;;3.42;2.05;;;23.30;38.40;;;;;;5031051;28;20041;-62
2021/04/28 13:01:16;;;;;;;4.30;1.73;;;23.70;38.00;;;;;;5030658;28;20636;-62
2021/04/28 13:03:43;;;;;;;4.28;1.77;;;23.80;38.00;;;;;;5019040;28;20424;-61
2021/04/28 13:06:22;;;;;;;4.65;1.80;;;23.90;36.60;;;;;;5031578;28;20103;-61
2021/04/28 13:08:49;;;;;;;4.32;2.00;;;24.10;36.80;;;;;;5025283;28;20136;-61
2021/04/28 13:11:20;;;;;;;3.00;1.83;;;24.20;37.00;;;;;;5032336;28;20052;-61